Time;durP1;ratioP1;P1;durP2;ratioP2;P2;SDS_P1;SDS_P2;PMS_P1;PMS_P2;Temp;Humidity;BMP_temperature;BMP_pressure;BME280_temperature;BME280_humidity;BME280_pressure;Samples;Min_cycle;Max_cycle;Signal;HPM_P1;HPM_P2
2022/10/22 08:15:08;;;;;;;6.00;3.65;;;;;;;;;;13130836;22;20133;-85
2022/10/22 08:32:40;;;;;;;7.10;2.90;;;;;;;;;;13125796;22;20009;-85
2022/10/22 08:55:04;;;;;;;6.28;3.85;;;;;;;;;;13107237;22;20338;-85
2022/10/22 09:06:27;;;;;;;7.72;3.60;;;;;;;;;;12867679;23;20012;-85
2022/10/22 09:23:32;;;;;;;5.85;3.40;;;;;;;;;;12871059;23;20051;-85
2022/10/22 09:57:47;;;;;;;8.27;4.70;;;;;;;;;;13159567;22;20013;-85
2022/10/22 10:03:36;;;;;;;4.55;2.00;;;;;;;;;;12897292;23;20013;-86
2022/10/22 12:09:09;;;;;;;4.28;2.30;;;;;;;;;;13094721;22;20019;-86
2022/10/22 12:36:42;;;;;;;3.72;1.55;;;;;;;;;;13183246;22;19910;-88
2022/10/22 12:42:22;;;;;;;3.42;1.90;;;;;;;;;;12871986;23;20008;-88
2022/10/22 12:47:41;;;;;;;6.50;1.88;;;;;;;;;;12881034;23;20027;-87
2022/10/22 13:04:38;;;;;;;3.78;1.70;;;;;;;;;;12650587;23;20058;-87
2022/10/22 13:10:03;;;;;;;4.07;1.35;;;;;;;;;;12639216;23;20022;-87
2022/10/22 13:15:29;;;;;;;3.30;1.30;;;;;;;;;;12962143;22;20090;-87
2022/10/22 13:21:11;;;;;;;;;;;;;;;;;;;;;
2022/10/22 13:31:46;;;;;;;3.35;1.23;;;;;;;;;;13193787;22;20019;-84
2022/10/22 13:36:48;;;;;;;4.55;1.30;;;;;;;;;;13170653;22;20026;-85
2022/10/22 13:41:49;;;;;;;4.40;1.30;;;;;;;;;;13132108;22;20078;-83
2022/10/22 13:46:50;;;;;;;4.57;1.42;;;;;;;;;;13104151;22;20060;-83
2022/10/22 13:51:59;;;;;;;3.15;1.10;;;;;;;;;;13130828;22;19995;-84
2022/10/22 13:57:01;;;;;;;3.97;1.27;;;;;;;;;;13104286;22;20007;-83
2022/10/22 14:02:05;;;;;;;3.53;1.50;;;;;;;;;;13104656;22;20089;-84
2022/10/22 14:07:16;;;;;;;3.40;1.40;;;;;;;;;;13103635;22;20423;-83
2022/10/22 14:12:17;;;;;;;3.85;1.60;;;;;;;;;;13101636;22;19999;-83
2022/10/22 14:17:18;;;;;;;5.00;1.50;;;;;;;;;;13130405;22;19998;-84
2022/10/22 14:22:19;;;;;;;5.40;1.70;;;;;;;;;;13105300;22;20007;-82
2022/10/22 14:27:20;;;;;;;3.78;1.30;;;;;;;;;;13114863;22;20007;-84
2022/10/22 14:32:22;;;;;;;2.35;1.30;;;;;;;;;;13112422;22;20086;-84
2022/10/22 14:37:23;;;;;;;4.65;1.80;;;;;;;;;;13104735;22;20003;-83
2022/10/22 14:42:25;;;;;;;3.60;1.75;;;;;;;;;;13105058;22;20449;-83
2022/10/22 14:47:26;;;;;;;4.20;1.70;;;;;;;;;;13105043;22;20402;-83
2022/10/22 14:52:27;;;;;;;4.45;1.65;;;;;;;;;;13111212;22;20010;-83
2022/10/22 14:57:28;;;;;;;3.97;1.90;;;;;;;;;;13178060;22;19991;-80
2022/10/22 15:02:29;;;;;;;4.55;1.98;;;;;;;;;;13151100;22;19994;-80
2022/10/22 15:07:30;;;;;;;3.83;1.70;;;;;;;;;;13174047;22;20014;-82
2022/10/22 15:12:31;;;;;;;3.00;1.58;;;;;;;;;;13122617;22;20010;-83
2022/10/22 15:17:33;;;;;;;6.07;3.60;;;;;;;;;;13105062;22;20049;-83
2022/10/22 15:22:34;;;;;;;3.42;2.03;;;;;;;;;;13195885;22;20345;-85
2022/10/22 15:27:35;;;;;;;3.83;2.08;;;;;;;;;;13158106;22;20003;-85
2022/10/22 15:32:36;;;;;;;3.08;1.83;;;;;;;;;;13106187;22;20078;-83
2022/10/22 15:37:37;;;;;;;5.35;2.83;;;;;;;;;;13132788;22;20056;-82
2022/10/22 15:42:38;;;;;;;4.45;1.60;;;;;;;;;;13119039;22;19994;-80
2022/10/22 15:47:40;;;;;;;3.47;2.00;;;;;;;;;;13139856;22;20022;-83
2022/10/22 15:52:41;;;;;;;4.95;2.00;;;;;;;;;;13125042;22;20019;-83
2022/10/22 15:57:42;;;;;;;3.53;1.80;;;;;;;;;;13113110;22;19999;-82
2022/10/22 16:02:49;;;;;;;3.13;1.48;;;;;;;;;;13104979;22;20026;-83
2022/10/22 16:07:52;;;;;;;4.22;1.50;;;;;;;;;;13104505;22;20014;-84
2022/10/22 16:12:55;;;;;;;4.25;1.73;;;;;;;;;;13105105;22;20025;-84
2022/10/22 16:17:56;;;;;;;2.40;1.50;;;;;;;;;;13103764;22;20010;-84
2022/10/22 16:22:57;;;;;;;3.15;1.50;;;;;;;;;;13100888;22;20002;-83
2022/10/22 16:27:58;;;;;;;2.05;1.25;;;;;;;;;;13098398;22;20041;-82
2022/10/22 16:33:00;;;;;;;2.78;1.25;;;;;;;;;;13102699;22;20022;-82
2022/10/22 16:38:01;;;;;;;4.57;2.35;;;;;;;;;;13101341;22;20460;-83
2022/10/22 16:43:02;;;;;;;3.55;1.58;;;;;;;;;;13098834;22;20085;-83
2022/10/22 16:48:03;;;;;;;2.30;1.70;;;;;;;;;;13100099;22;20430;-83
2022/10/22 16:53:04;;;;;;;2.50;1.60;;;;;;;;;;13098086;22;20006;-82
2022/10/22 16:58:05;;;;;;;2.90;1.80;;;;;;;;;;13099755;22;20519;-82
2022/10/22 17:03:06;;;;;;;3.92;2.78;;;;;;;;;;13122426;22;20038;-82
2022/10/22 17:08:07;;;;;;;4.93;3.53;;;;;;;;;;13092561;22;20423;-83
2022/10/22 17:13:08;;;;;;;6.95;4.88;;;;;;;;;;13121091;22;19995;-83
2022/10/22 17:18:10;;;;;;;4.38;3.42;;;;;;;;;;13099429;22;20319;-83
2022/10/22 17:23:11;;;;;;;4.97;2.72;;;;;;;;;;13128765;22;20030;-84
2022/10/22 17:28:12;;;;;;;3.28;2.13;;;;;;;;;;13128290;22;20030;-83
2022/10/22 17:33:13;;;;;;;3.58;2.42;;;;;;;;;;13101265;22;19998;-83
2022/10/22 17:38:14;;;;;;;4.93;2.30;;;;;;;;;;13100761;22;20442;-84
2022/10/22 17:43:17;;;;;;;3.42;2.30;;;;;;;;;;13102235;22;20005;-84
2022/10/22 17:48:18;;;;;;;4.20;2.67;;;;;;;;;;13102426;22;20060;-84
2022/10/22 17:53:20;;;;;;;3.50;2.38;;;;;;;;;;13127300;22;20343;-83
2022/10/22 17:58:33;;;;;;;3.25;2.35;;;;;;;;;;13125796;22;20082;-83
2022/10/22 18:03:34;;;;;;;4.75;2.70;;;;;;;;;;13100996;22;20013;-84
2022/10/22 18:08:36;;;;;;;4.65;2.65;;;;;;;;;;13096638;22;20018;-83
2022/10/22 18:13:38;;;;;;;7.43;3.35;;;;;;;;;;13125894;22;20010;-83
2022/10/22 18:18:39;;;;;;;4.68;2.80;;;;;;;;;;13098735;22;20018;-82
2022/10/22 18:23:40;;;;;;;4.13;2.75;;;;;;;;;;13096470;22;20082;-83
2022/10/22 18:28:41;;;;;;;5.40;2.60;;;;;;;;;;13126271;22;20003;-82
2022/10/22 18:33:42;;;;;;;3.78;2.63;;;;;;;;;;13097530;22;20028;-83
2022/10/22 18:38:43;;;;;;;4.03;2.78;;;;;;;;;;13099218;22;20334;-84
2022/10/22 18:43:44;;;;;;;3.75;2.70;;;;;;;;;;13097521;22;20002;-83
2022/10/22 18:48:45;;;;;;;5.00;3.35;;;;;;;;;;13098042;22;20457;-83
2022/10/22 18:53:49;;;;;;;5.13;3.38;;;;;;;;;;13098220;22;20006;-83
2022/10/22 18:58:50;;;;;;;6.80;4.15;;;;;;;;;;13097033;22;20380;-82
2022/10/22 19:03:51;;;;;;;5.10;3.30;;;;;;;;;;13100261;22;20030;-83
2022/10/22 19:08:52;;;;;;;4.88;3.60;;;;;;;;;;13099930;22;20069;-83
2022/10/22 19:13:53;;;;;;;4.60;3.60;;;;;;;;;;13099632;22;20122;-83
2022/10/22 19:19:02;;;;;;;3.47;2.70;;;;;;;;;;13100301;22;20312;-83
